createdAt,value
2023-06-03T00:00:30.408Z,78.02
2023-06-03T00:01:35.544Z,78.46
2023-06-03T00:02:39.480Z,78.18
2023-06-03T00:03:46.131Z,78.50
2023-06-03T00:04:50.440Z,78.45
2023-06-03T00:05:53.222Z,78.51
2023-06-03T00:06:57.385Z,78.29
2023-06-03T00:08:00.170Z,78.29
2023-06-03T00:09:04.108Z,78.85
2023-06-03T00:10:07.799Z,78.52
2023-06-03T00:11:12.973Z,78.67
2023-06-03T00:12:16.169Z,78.93
2023-06-03T00:13:20.133Z,79.03
2023-06-03T00:14:22.981Z,79.05
2023-06-03T00:15:27.034Z,79.30
2023-06-03T00:16:29.814Z,79.33
2023-06-03T00:17:34.955Z,79.14
2023-06-03T00:18:37.765Z,79.46
2023-06-03T00:19:44.609Z,79.23
2023-06-03T00:20:49.266Z,78.82
2023-06-03T00:21:55.440Z,78.92
2023-06-03T00:22:58.258Z,78.96
2023-06-03T00:24:02.417Z,78.90
2023-06-03T00:25:08.682Z,79.00
2023-06-03T00:26:12.822Z,78.82
2023-06-03T00:27:16.903Z,78.79
2023-06-03T00:28:20.914Z,78.57
2023-06-03T00:29:23.799Z,78.60
2023-06-03T00:30:27.968Z,78.52
2023-06-03T00:31:30.732Z,78.04
2023-06-03T00:32:35.433Z,77.66
2023-06-03T00:33:38.705Z,77.72
2023-06-03T00:34:44.188Z,77.89
2023-06-03T00:35:47.056Z,78.11
2023-06-03T00:36:51.019Z,78.29
2023-06-03T00:37:55.435Z,78.44
2023-06-03T00:38:59.564Z,78.30
2023-06-03T00:40:02.428Z,77.94
2023-06-03T00:41:10.125Z,78.24
2023-06-03T00:42:13.139Z,78.25
2023-06-03T00:43:17.203Z,77.91
2023-06-03T00:44:20.009Z,77.49
2023-06-03T00:45:23.863Z,76.82
2023-06-03T00:46:27.439Z,76.56
2023-06-03T00:47:31.616Z,76.29
2023-06-03T00:48:34.414Z,76.45
2023-06-03T00:49:38.576Z,76.28
2023-06-03T00:50:42.948Z,75.83
2023-06-03T00:51:48.135Z,76.21
2023-06-03T00:52:53.272Z,76.24
2023-06-03T00:53:57.371Z,76.44
2023-06-03T00:55:00.236Z,76.45
2023-06-03T00:56:04.649Z,76.28
2023-06-03T00:57:08.049Z,76.37
2023-06-03T00:58:13.264Z,75.33
2023-06-03T00:59:17.461Z,75.61
2023-06-03T01:00:21.760Z,75.48
2023-06-03T01:01:25.785Z,74.99
2023-06-03T01:02:30.764Z,74.94
2023-06-03T01:03:33.711Z,75.36
2023-06-03T01:04:38.753Z,75.50
2023-06-03T01:05:47.285Z,74.98
2023-06-03T01:07:04.024Z,74.92
2023-06-03T01:08:15.769Z,75.46
2023-06-03T01:09:30.971Z,74.85
2023-06-03T01:10:44.676Z,75.32
2023-06-03T01:12:00.465Z,74.79
2023-06-03T01:13:11.620Z,75.20
2023-06-03T01:14:19.303Z,75.26
2023-06-03T01:15:27.014Z,74.88
2023-06-03T01:16:34.019Z,74.98
2023-06-03T01:17:47.114Z,75.05
2023-06-03T01:18:51.193Z,74.98
2023-06-03T01:19:58.000Z,74.92
2023-06-03T01:21:04.650Z,75.43
2023-06-03T01:22:10.139Z,74.63
2023-06-03T01:23:22.189Z,75.29
2023-06-03T01:24:26.077Z,74.77
2023-06-03T01:25:30.315Z,75.98
2023-06-03T01:26:36.331Z,75.21
2023-06-03T01:27:40.319Z,76.21
2023-06-03T01:28:46.495Z,76.65
2023-06-03T01:29:49.399Z,76.99
2023-06-03T01:30:54.227Z,77.40
2023-06-03T01:31:58.882Z,77.73
2023-06-03T01:33:04.566Z,77.66
2023-06-03T01:34:07.873Z,78.29
2023-06-03T01:35:14.717Z,78.35
2023-06-03T01:36:17.862Z,77.25
2023-06-03T01:37:23.150Z,76.94
2023-06-03T01:38:27.909Z,77.27
2023-06-03T01:39:34.980Z,77.38
2023-06-03T01:40:39.298Z,77.73
2023-06-03T01:41:45.744Z,77.91
2023-06-03T01:42:49.000Z,78.33
2023-06-03T01:43:52.799Z,78.54
2023-06-03T01:44:58.638Z,78.88
2023-06-03T01:46:05.284Z,78.70
2023-06-03T01:47:09.120Z,78.72
2023-06-03T01:48:14.188Z,79.12
2023-06-03T01:49:19.159Z,78.84
2023-06-03T01:50:25.406Z,78.44
2023-06-03T01:51:28.637Z,78.63
2023-06-03T01:52:33.389Z,78.30
2023-06-03T01:53:38.020Z,78.56
2023-06-03T01:54:42.180Z,78.62
2023-06-03T01:55:46.025Z,78.48
2023-06-03T01:56:50.465Z,78.16
2023-06-03T01:57:53.533Z,78.21
2023-06-03T01:58:57.290Z,77.41
2023-06-03T02:00:00.393Z,78.12
2023-06-03T02:01:05.093Z,78.07
2023-06-03T02:02:08.302Z,78.06
2023-06-03T02:03:12.189Z,78.02
2023-06-03T02:04:15.217Z,78.00
2023-06-03T02:05:19.289Z,78.07
2023-06-03T02:06:22.276Z,78.17
2023-06-03T02:07:27.250Z,78.24
2023-06-03T02:08:30.156Z,78.08
2023-06-03T02:09:35.555Z,78.21
2023-06-03T02:10:38.485Z,77.65
2023-06-03T02:11:45.068Z,77.53
2023-06-03T02:12:48.088Z,78.08
2023-06-03T02:13:53.844Z,77.82
2023-06-03T02:14:57.990Z,78.10
2023-06-03T02:16:01.810Z,77.92
2023-06-03T02:17:06.163Z,78.04
2023-06-03T02:18:10.067Z,77.97
2023-06-03T02:19:14.893Z,77.52
2023-06-03T02:20:19.025Z,77.88
2023-06-03T02:21:21.757Z,77.73
2023-06-03T02:22:28.440Z,78.19
2023-06-03T02:23:31.247Z,78.32
2023-06-03T02:24:39.572Z,78.13
2023-06-03T02:25:42.380Z,77.97
2023-06-03T02:26:51.366Z,78.25
2023-06-03T02:27:56.227Z,77.98
2023-06-03T02:29:00.269Z,78.33
2023-06-03T02:30:03.166Z,77.67
2023-06-03T02:31:09.019Z,78.61
2023-06-03T02:32:11.929Z,78.78
2023-06-03T02:33:16.055Z,78.10
2023-06-03T02:34:20.434Z,78.47
2023-06-03T02:35:24.817Z,78.24
2023-06-03T02:36:27.583Z,78.66
2023-06-03T02:37:32.236Z,78.63
2023-06-03T02:38:35.252Z,78.71
2023-06-03T02:39:40.774Z,78.89
2023-06-03T02:40:43.604Z,79.11
2023-06-03T02:41:49.429Z,78.96
2023-06-03T02:42:52.823Z,79.09
2023-06-03T02:43:56.918Z,79.35
2023-06-03T02:44:59.891Z,79.22
2023-06-03T02:46:04.348Z,79.08
2023-06-03T02:47:08.098Z,79.10
2023-06-03T02:48:12.300Z,79.11
2023-06-03T02:49:15.388Z,78.69
2023-06-03T02:50:19.463Z,78.75
2023-06-03T02:51:22.290Z,78.57
2023-06-03T02:52:26.616Z,78.80
2023-06-03T02:53:29.602Z,78.62
2023-06-03T02:54:33.620Z,77.88
2023-06-03T02:55:38.102Z,78.28
2023-06-03T02:56:42.234Z,78.08
2023-06-03T02:57:45.051Z,78.14
2023-06-03T02:58:49.058Z,77.94
2023-06-03T02:59:51.887Z,77.58
2023-06-03T03:00:55.857Z,77.75
2023-06-03T03:01:58.750Z,77.15
2023-06-03T03:03:02.920Z,76.91
2023-06-03T03:04:05.788Z,76.78
2023-06-03T03:05:10.006Z,76.22
2023-06-03T03:06:13.116Z,76.22
2023-06-03T03:07:18.720Z,75.95
2023-06-03T03:08:21.752Z,75.28
2023-06-03T03:09:26.515Z,75.29
2023-06-03T03:10:29.365Z,75.50
2023-06-03T03:11:34.690Z,75.27
2023-06-03T03:12:37.719Z,75.22
2023-06-03T03:13:42.697Z,74.92
2023-06-03T03:14:46.118Z,74.95
2023-06-03T03:15:50.245Z,74.42
2023-06-03T03:16:53.860Z,74.02
2023-06-03T03:17:58.673Z,74.08
2023-06-03T03:19:01.782Z,73.88
2023-06-03T03:20:07.523Z,73.88
2023-06-03T03:21:10.907Z,73.65
2023-06-03T03:22:14.671Z,73.47
2023-06-03T03:23:17.781Z,73.61
2023-06-03T03:24:23.852Z,73.63
2023-06-03T03:25:26.776Z,72.64
2023-06-03T03:26:31.248Z,72.43
2023-06-03T03:27:35.732Z,72.57
2023-06-03T03:28:39.803Z,72.62
2023-06-03T03:29:45.789Z,72.37
2023-06-03T03:30:51.614Z,72.68
2023-06-03T03:32:06.609Z,71.99
2023-06-03T03:33:11.628Z,71.38
2023-06-03T03:34:15.629Z,70.92
2023-06-03T03:35:22.876Z,71.45
2023-06-03T03:36:32.212Z,70.93
2023-06-03T03:37:42.889Z,70.91
2023-06-03T03:38:47.228Z,70.10
2023-06-03T03:39:50.001Z,70.16
2023-06-03T03:40:53.906Z,69.84
2023-06-03T03:41:57.077Z,69.82
2023-06-03T03:43:04.485Z,69.31
2023-06-03T03:44:09.692Z,69.29
2023-06-03T03:45:17.699Z,68.57
2023-06-03T03:46:22.006Z,68.17
2023-06-03T03:47:24.916Z,66.35
2023-06-03T03:48:31.655Z,66.29
2023-06-03T03:49:37.182Z,65.67
2023-06-03T03:50:47.883Z,65.82
2023-06-03T03:51:58.061Z,64.43
2023-06-03T03:53:06.224Z,64.71
2023-06-03T03:54:10.594Z,64.69
2023-06-03T03:55:13.995Z,64.02
2023-06-03T03:56:23.393Z,63.65
2023-06-03T03:57:33.360Z,63.68
2023-06-03T03:58:42.632Z,63.54
2023-06-03T03:59:50.641Z,63.47
2023-06-03T04:00:55.548Z,63.25
2023-06-03T04:02:00.541Z,63.30
2023-06-03T04:03:03.969Z,62.71
2023-06-03T04:04:09.204Z,61.98
2023-06-03T04:05:15.444Z,62.06
2023-06-03T04:06:31.534Z,62.73
2023-06-03T04:07:36.769Z,62.52
2023-06-03T04:08:44.754Z,62.69
2023-06-03T04:09:48.791Z,62.78
2023-06-03T04:10:52.776Z,62.23
2023-06-03T04:11:56.753Z,62.33
2023-06-03T04:12:59.537Z,61.94
2023-06-03T04:14:07.447Z,62.71
2023-06-03T04:15:11.101Z,61.61
2023-06-03T04:16:26.138Z,61.61
2023-06-03T04:17:29.335Z,62.64
2023-06-03T04:18:35.735Z,62.49
2023-06-03T04:19:39.199Z,62.92
2023-06-03T04:20:50.013Z,62.83
2023-06-03T04:21:53.858Z,62.90
2023-06-03T04:22:56.624Z,63.05
2023-06-03T04:24:00.924Z,63.09
2023-06-03T04:25:08.788Z,63.34
2023-06-03T04:26:22.320Z,63.95
2023-06-03T04:27:25.579Z,64.54
2023-06-03T04:28:29.945Z,64.40
2023-06-03T04:29:34.811Z,64.77
2023-06-03T04:30:39.844Z,64.39
2023-06-03T04:31:44.028Z,64.69
2023-06-03T04:32:49.933Z,63.83
2023-06-03T04:33:54.561Z,63.24
2023-06-03T04:34:58.613Z,63.08
2023-06-03T04:36:01.547Z,62.98
2023-06-03T04:37:05.674Z,62.52
2023-06-03T04:38:08.584Z,60.89
2023-06-03T04:39:12.519Z,61.81
2023-06-03T04:40:18.574Z,62.41
2023-06-03T04:41:23.797Z,61.85
2023-06-03T04:42:27.903Z,60.26
2023-06-03T04:43:34.638Z,60.69
2023-06-03T04:44:40.123Z,59.21
2023-06-03T04:45:45.757Z,58.92
2023-06-03T04:46:50.981Z,59.09
2023-06-03T04:47:59.758Z,59.46
2023-06-03T04:49:04.110Z,58.78
2023-06-03T04:50:09.440Z,58.35
2023-06-03T04:51:12.653Z,58.00
2023-06-03T04:52:18.439Z,57.90
2023-06-03T04:53:27.265Z,57.63
2023-06-03T04:54:32.471Z,57.00
2023-06-03T04:55:35.326Z,57.64
2023-06-03T04:56:39.498Z,57.61
2023-06-03T04:57:42.507Z,57.36
2023-06-03T04:58:47.573Z,57.37
2023-06-03T04:59:58.843Z,57.08
2023-06-03T05:01:09.735Z,56.65
2023-06-03T05:02:14.889Z,56.58
2023-06-03T05:03:19.402Z,56.62
2023-06-03T05:04:23.464Z,56.18
2023-06-03T05:05:29.411Z,56.28
2023-06-03T05:06:35.232Z,55.55
2023-06-03T05:07:39.756Z,54.66
2023-06-03T05:08:43.813Z,54.79
2023-06-03T05:09:47.038Z,54.40
2023-06-03T05:10:51.514Z,53.77
2023-06-03T05:11:54.406Z,54.19
2023-06-03T05:12:59.473Z,54.62
2023-06-03T05:14:03.581Z,54.95
2023-06-03T05:15:10.147Z,54.51
2023-06-03T05:16:13.433Z,54.46
2023-06-03T05:17:17.583Z,54.31
2023-06-03T05:18:21.413Z,55.11
2023-06-03T05:19:24.477Z,52.54
2023-06-03T05:20:29.052Z,54.92
2023-06-03T05:21:32.967Z,54.96
2023-06-03T05:22:37.491Z,53.97
2023-06-03T05:23:40.434Z,53.80
2023-06-03T05:24:44.574Z,53.28
2023-06-03T05:25:47.801Z,52.89
2023-06-03T05:26:52.210Z,53.16
2023-06-03T05:28:03.851Z,52.89
2023-06-03T05:29:11.404Z,52.56
2023-06-03T05:30:16.393Z,52.41
2023-06-03T05:31:20.774Z,53.07
2023-06-03T05:32:24.157Z,52.64
2023-06-03T05:33:29.257Z,51.94
2023-06-03T05:34:38.112Z,51.50
2023-06-03T05:35:42.077Z,51.63
2023-06-03T05:36:45.081Z,51.20
2023-06-03T05:37:49.215Z,51.10
2023-06-03T05:38:52.037Z,51.65
2023-06-03T05:39:56.338Z,51.19
2023-06-03T05:41:00.881Z,51.64
2023-06-03T05:42:05.345Z,51.34
2023-06-03T05:43:08.194Z,51.50
2023-06-03T05:44:13.051Z,50.45
2023-06-03T05:45:17.894Z,50.50
2023-06-03T05:46:22.105Z,50.68
2023-06-03T05:47:25.032Z,50.76
2023-06-03T05:48:29.039Z,51.93
2023-06-03T05:49:34.078Z,50.42
2023-06-03T05:50:41.106Z,50.09
2023-06-03T05:51:43.881Z,50.77
2023-06-03T05:52:48.038Z,49.87
2023-06-03T05:53:51.508Z,50.09
2023-06-03T05:54:58.990Z,50.48
2023-06-03T05:56:01.730Z,50.20
2023-06-03T05:57:07.578Z,50.65
2023-06-03T05:58:10.423Z,50.90
2023-06-03T05:59:14.570Z,51.23
2023-06-03T06:00:21.662Z,50.55
2023-06-03T06:01:31.886Z,50.22
2023-06-03T06:02:35.089Z,50.16
2023-06-03T06:03:39.327Z,49.73
2023-06-03T06:04:43.485Z,49.96
2023-06-03T06:05:46.761Z,50.23
2023-06-03T06:06:50.719Z,50.21
2023-06-03T06:07:53.469Z,50.39
2023-06-03T06:08:58.060Z,50.00
2023-06-03T06:10:01.296Z,50.86
2023-06-03T06:11:07.935Z,50.97
2023-06-03T06:12:10.750Z,51.47
2023-06-03T06:13:15.067Z,50.97
2023-06-03T06:14:17.953Z,51.23
2023-06-03T06:15:24.015Z,51.22
2023-06-03T06:16:27.051Z,51.13
2023-06-03T06:17:31.288Z,51.28
2023-06-03T06:18:35.230Z,51.02
2023-06-03T06:19:38.520Z,51.61
2023-06-03T06:20:43.121Z,52.17
2023-06-03T06:21:48.903Z,52.19
2023-06-03T06:22:52.699Z,52.25
2023-06-03T06:23:57.335Z,52.69
2023-06-03T06:25:00.544Z,51.83
2023-06-03T06:26:05.254Z,52.20
2023-06-03T06:27:09.112Z,52.03
2023-06-03T06:28:13.619Z,52.69
2023-06-03T06:29:17.743Z,53.19
2023-06-03T06:30:22.765Z,53.55
2023-06-03T06:31:26.933Z,53.51
2023-06-03T06:32:31.848Z,52.54
2023-06-03T06:33:36.782Z,52.91
2023-06-03T06:34:42.682Z,52.42
2023-06-03T06:35:46.328Z,52.45
2023-06-03T06:36:54.049Z,52.38
2023-06-03T06:38:06.557Z,51.83
2023-06-03T06:39:37.786Z,52.36
2023-06-03T06:40:47.274Z,52.51
2023-06-03T06:41:52.107Z,52.70
2023-06-03T06:42:56.256Z,52.93
2023-06-03T06:44:16.828Z,52.32
2023-06-03T06:45:26.988Z,52.53
2023-06-03T06:46:37.280Z,52.96
2023-06-03T06:47:41.474Z,52.92
2023-06-03T06:48:44.794Z,51.83
2023-06-03T06:49:49.160Z,51.92
2023-06-03T06:50:54.473Z,51.31
2023-06-03T06:52:01.413Z,51.30
2023-06-03T06:53:06.512Z,51.45
2023-06-03T06:54:10.824Z,51.78
2023-06-03T06:55:33.774Z,51.72
2023-06-03T06:56:37.812Z,52.83
2023-06-03T06:57:41.365Z,52.62
2023-06-03T06:58:45.826Z,51.65
2023-06-03T06:59:48.927Z,52.33
2023-06-03T07:00:54.424Z,52.24
2023-06-03T07:01:57.786Z,50.20
2023-06-03T07:03:02.065Z,50.42
2023-06-03T07:04:06.261Z,50.86
2023-06-03T07:05:11.504Z,50.86
2023-06-03T07:06:15.470Z,50.76
2023-06-03T07:07:19.736Z,50.76
2023-06-03T07:08:25.331Z,50.52
2023-06-03T07:09:28.232Z,50.11
2023-06-03T07:10:32.366Z,50.83
2023-06-03T07:11:43.263Z,50.13
2023-06-03T07:12:46.380Z,50.13
2023-06-03T07:13:53.275Z,49.56
2023-06-03T07:14:56.995Z,49.42
2023-06-03T07:16:04.435Z,49.46
2023-06-03T07:17:07.920Z,49.71
2023-06-03T07:18:12.660Z,49.77
2023-06-03T07:19:15.849Z,50.32
2023-06-03T07:20:26.105Z,50.05
2023-06-03T07:21:30.627Z,49.24
2023-06-03T07:22:37.974Z,47.91
2023-06-03T07:23:48.059Z,47.62
2023-06-03T07:24:51.330Z,48.89
2023-06-03T07:25:57.245Z,46.68
2023-06-03T07:27:02.752Z,46.36
2023-06-03T07:28:07.727Z,45.61
2023-06-03T07:29:11.558Z,45.30
2023-06-03T07:30:17.806Z,46.54
2023-06-03T07:31:23.859Z,45.91
2023-06-03T07:32:27.226Z,44.76
2023-06-03T07:33:35.140Z,43.53
2023-06-03T07:34:40.222Z,42.85
2023-06-03T07:35:44.509Z,43.78
2023-06-03T07:36:52.209Z,42.81
2023-06-03T07:37:58.493Z,43.14
2023-06-03T07:39:04.899Z,42.46
2023-06-03T07:40:16.988Z,42.36
2023-06-03T07:41:36.867Z,42.45
2023-06-03T07:42:41.545Z,42.46
2023-06-03T07:43:48.751Z,42.13
2023-06-03T07:44:53.248Z,42.33
2023-06-03T07:45:56.388Z,41.95
2023-06-03T07:47:01.592Z,41.07
2023-06-03T07:48:07.765Z,41.65
2023-06-03T07:49:12.210Z,42.20
2023-06-03T07:50:24.548Z,41.67
2023-06-03T07:51:27.527Z,42.31
2023-06-03T07:52:37.771Z,42.40
2023-06-03T07:53:40.854Z,42.08
2023-06-03T07:54:45.589Z,41.62
2023-06-03T07:55:48.809Z,41.77
2023-06-03T07:56:52.732Z,41.71
2023-06-03T07:57:55.820Z,42.55
2023-06-03T07:59:01.656Z,42.73
2023-06-03T08:00:07.321Z,42.73
2023-06-03T08:01:17.582Z,43.52
2023-06-03T08:02:23.624Z,42.32
2023-06-03T08:03:29.187Z,41.91
2023-06-03T08:04:35.948Z,41.92
2023-06-03T08:05:39.097Z,41.43
2023-06-03T08:06:47.145Z,41.67
2023-06-03T08:07:51.225Z,41.26
2023-06-03T08:08:54.374Z,41.37
2023-06-03T08:09:58.317Z,41.33
2023-06-03T08:11:04.161Z,40.39
2023-06-03T08:12:09.402Z,40.07
2023-06-03T08:13:15.094Z,40.23
2023-06-03T08:14:19.676Z,40.42
2023-06-03T08:15:32.949Z,40.51
2023-06-03T08:16:38.323Z,40.39
2023-06-03T08:17:45.177Z,40.83
2023-06-03T08:18:51.910Z,40.21
2023-06-03T08:19:54.877Z,40.55
2023-06-03T08:21:04.666Z,40.40
2023-06-03T08:22:22.136Z,40.12
2023-06-03T08:23:26.281Z,39.90
2023-06-03T08:24:29.064Z,39.49
2023-06-03T08:25:33.824Z,39.15
2023-06-03T08:26:37.536Z,39.21
2023-06-03T08:27:41.475Z,39.64
2023-06-03T08:28:45.420Z,39.46
2023-06-03T08:29:49.482Z,38.87
2023-06-03T08:30:52.644Z,38.48
2023-06-03T08:31:56.786Z,38.03
2023-06-03T08:33:02.576Z,37.40
2023-06-03T08:34:05.677Z,37.69
2023-06-03T08:35:11.060Z,36.90
2023-06-03T08:36:14.031Z,37.29
2023-06-03T08:37:18.143Z,37.72
2023-06-03T08:38:21.605Z,37.96
2023-06-03T08:39:25.402Z,37.69
2023-06-03T08:40:28.951Z,38.17
2023-06-03T08:41:39.803Z,38.23
2023-06-03T08:42:44.044Z,38.22
2023-06-03T08:43:53.197Z,38.42
2023-06-03T08:45:04.351Z,38.36
2023-06-03T08:46:20.449Z,37.81
2023-06-03T08:47:36.603Z,37.88
2023-06-03T08:48:49.277Z,38.28
2023-06-03T08:50:02.913Z,38.46
2023-06-03T08:51:08.321Z,38.29
2023-06-03T08:52:12.013Z,37.52
2023-06-03T08:53:16.527Z,37.72
2023-06-03T08:54:22.774Z,38.24
2023-06-03T08:55:28.487Z,38.84
2023-06-03T08:56:32.683Z,39.18
2023-06-03T08:57:38.895Z,38.96
2023-06-03T08:58:45.217Z,39.15
2023-06-03T08:59:53.772Z,39.89
2023-06-03T09:00:58.289Z,38.72
2023-06-03T09:02:06.555Z,37.76
2023-06-03T09:03:13.043Z,39.12
2023-06-03T09:04:19.582Z,38.44
2023-06-03T09:05:23.475Z,39.01
2023-06-03T09:06:27.647Z,38.87
2023-06-03T09:07:32.086Z,38.30
2023-06-03T09:08:38.735Z,38.42
2023-06-03T09:09:43.218Z,38.82
2023-06-03T09:10:48.436Z,38.70
2023-06-03T09:11:54.880Z,39.53
2023-06-03T09:13:00.176Z,39.90
2023-06-03T09:14:05.739Z,39.42
2023-06-03T09:15:10.150Z,39.52
2023-06-03T09:16:17.189Z,39.41
2023-06-03T09:18:25.808Z,39.82
2023-06-03T09:19:31.045Z,39.65
2023-06-03T09:20:37.213Z,39.61
2023-06-03T09:21:44.562Z,39.45
2023-06-03T09:22:49.532Z,39.15
2023-06-03T09:23:52.881Z,39.52
2023-06-03T09:24:57.443Z,39.20
2023-06-03T09:26:00.805Z,39.32
2023-06-03T09:27:05.524Z,39.25
2023-06-03T09:28:09.003Z,38.94
2023-06-03T09:29:15.337Z,39.20
2023-06-03T09:30:18.548Z,39.43
2023-06-03T09:31:23.472Z,39.69
2023-06-03T09:32:26.492Z,38.93
2023-06-03T09:33:31.118Z,38.89
2023-06-03T09:34:36.317Z,38.97
2023-06-03T09:35:40.376Z,39.59
2023-06-03T09:36:46.597Z,39.43
2023-06-03T09:38:00.806Z,39.67
2023-06-03T09:39:03.833Z,41.02
2023-06-03T09:40:26.881Z,39.90
2023-06-03T09:41:29.961Z,39.54
2023-06-03T09:42:43.901Z,39.48
2023-06-03T09:43:56.795Z,39.50
2023-06-03T09:45:01.444Z,39.54
2023-06-03T09:46:10.816Z,39.45
2023-06-03T09:47:14.987Z,39.30
2023-06-03T09:48:24.811Z,39.25
2023-06-03T09:49:38.323Z,38.42
2023-06-03T09:50:54.008Z,38.67
2023-06-03T09:51:57.962Z,38.70
2023-06-03T09:53:03.598Z,39.16
2023-06-03T09:54:12.307Z,39.31
2023-06-03T09:55:18.799Z,39.35
2023-06-03T09:56:24.861Z,39.96
2023-06-03T09:57:28.874Z,38.67
2023-06-03T09:58:31.951Z,39.47
2023-06-03T09:59:35.981Z,39.00
2023-06-03T10:00:48.855Z,39.13
2023-06-03T10:01:54.461Z,38.37
2023-06-03T10:03:07.098Z,39.49
2023-06-03T10:04:15.617Z,38.13
2023-06-03T10:05:30.000Z,38.43
2023-06-03T10:06:37.002Z,39.11
2023-06-03T10:07:49.426Z,38.77
2023-06-03T10:08:52.173Z,38.42
2023-06-03T10:10:06.534Z,38.07
2023-06-03T10:11:10.239Z,37.59
2023-06-03T10:12:14.342Z,38.81
2023-06-03T10:13:23.031Z,38.61
2023-06-03T10:14:27.600Z,38.15
2023-06-03T10:15:38.944Z,37.04
2023-06-03T10:16:42.318Z,37.71
2023-06-03T10:17:48.422Z,37.60
2023-06-03T10:18:51.265Z,37.05
2023-06-03T10:19:55.583Z,36.75
2023-06-03T10:20:59.116Z,36.79
2023-06-03T10:22:05.407Z,36.99
2023-06-03T10:23:09.618Z,36.70
2023-06-03T10:24:15.540Z,36.19
2023-06-03T10:25:20.184Z,35.92
2023-06-03T10:26:25.209Z,36.14
2023-06-03T10:27:29.809Z,35.61
2023-06-03T10:28:33.410Z,35.91
2023-06-03T10:29:38.242Z,36.61
2023-06-03T10:30:42.233Z,36.00
2023-06-03T10:31:48.471Z,35.43
2023-06-03T10:32:51.695Z,35.85
2023-06-03T10:33:56.589Z,35.25
2023-06-03T10:35:01.192Z,34.84
2023-06-03T10:36:10.674Z,34.48
2023-06-03T10:37:17.076Z,35.28
2023-06-03T10:38:20.726Z,34.44
2023-06-03T10:39:27.162Z,34.22
2023-06-03T10:40:30.647Z,34.64
2023-06-03T10:41:34.874Z,34.46
2023-06-03T10:42:40.150Z,34.55
2023-06-03T10:43:47.371Z,34.95
2023-06-03T10:44:51.383Z,34.04
2023-06-03T10:45:57.916Z,33.52
2023-06-03T10:47:05.123Z,33.51
2023-06-03T10:48:11.753Z,33.06
2023-06-03T10:49:17.027Z,33.77
2023-06-03T10:50:29.905Z,32.98
2023-06-03T10:51:47.236Z,32.14
2023-06-03T10:53:12.098Z,31.91
2023-06-03T10:54:28.169Z,32.24
2023-06-03T10:55:36.814Z,31.59
2023-06-03T10:56:48.264Z,32.48
2023-06-03T10:58:00.688Z,31.98
2023-06-03T10:59:05.985Z,31.85
2023-06-03T11:00:12.683Z,32.01
2023-06-03T11:01:15.688Z,32.36
2023-06-03T11:02:20.230Z,32.09
2023-06-03T11:03:23.925Z,32.89
2023-06-03T11:04:28.711Z,32.51
2023-06-03T11:05:31.919Z,32.36
2023-06-03T11:06:41.934Z,31.74
2023-06-03T11:07:45.281Z,32.49
2023-06-03T11:09:06.328Z,32.08
2023-06-03T11:10:41.945Z,30.57
2023-06-03T11:12:14.786Z,31.60
2023-06-03T11:13:42.837Z,30.98
2023-06-03T11:14:57.454Z,30.94
2023-06-03T11:16:02.139Z,30.26
2023-06-03T11:17:14.261Z,29.34
2023-06-03T11:18:19.290Z,29.09
2023-06-03T11:19:32.391Z,29.33
2023-06-03T11:20:40.136Z,29.25
2023-06-03T11:21:50.208Z,29.39
2023-06-03T11:22:54.325Z,29.41
2023-06-03T11:23:57.281Z,28.91
2023-06-03T11:25:03.016Z,28.91
2023-06-03T11:26:32.600Z,28.93
2023-06-03T11:27:36.317Z,29.88
2023-06-03T11:28:39.892Z,29.21
2023-06-03T11:29:57.854Z,28.97
2023-06-03T11:31:04.405Z,29.07
2023-06-03T11:32:13.883Z,28.61
2023-06-03T11:33:18.662Z,28.46
2023-06-03T11:34:22.921Z,28.66
2023-06-03T11:35:31.564Z,28.67
2023-06-03T11:36:59.098Z,28.04
2023-06-03T11:38:04.746Z,27.71
2023-06-03T11:39:09.273Z,28.20
2023-06-03T11:40:17.747Z,27.35
2023-06-03T11:42:21.059Z,27.76
2023-06-03T11:43:24.118Z,27.62
2023-06-03T11:44:30.345Z,27.35
2023-06-03T11:45:35.384Z,27.06
2023-06-03T11:46:38.187Z,26.67
2023-06-03T11:47:50.453Z,27.35
2023-06-03T11:48:54.946Z,26.89
2023-06-03T11:49:59.008Z,26.88
2023-06-03T11:51:04.023Z,26.33
2023-06-03T11:52:09.381Z,27.28
2023-06-03T11:53:29.159Z,26.65
2023-06-03T11:54:34.003Z,27.39
2023-06-03T11:55:39.479Z,26.83
2023-06-03T11:56:46.820Z,26.89
2023-06-03T11:57:51.302Z,27.35
2023-06-03T11:58:55.793Z,27.23
2023-06-03T12:00:00.233Z,26.95
2023-06-03T12:01:12.579Z,26.37
2023-06-03T12:02:16.468Z,27.31
2023-06-03T12:03:19.535Z,25.65
2023-06-03T12:04:23.893Z,25.99
2023-06-03T12:05:27.982Z,25.50
2023-06-03T12:06:35.001Z,26.49
2023-06-03T12:07:39.094Z,25.68
2023-06-03T12:08:48.581Z,26.15
2023-06-03T12:09:59.297Z,26.39
2023-06-03T12:11:03.967Z,25.96
2023-06-03T12:12:09.751Z,26.18
2023-06-03T12:13:12.471Z,26.34
2023-06-03T12:14:31.428Z,25.88
2023-06-03T12:15:34.209Z,25.26
2023-06-03T12:16:39.666Z,25.74
2023-06-03T12:17:44.285Z,25.31
2023-06-03T12:18:47.184Z,25.70
2023-06-03T12:19:52.742Z,25.55
2023-06-03T12:21:07.605Z,25.49
2023-06-03T12:22:13.176Z,25.77
2023-06-03T12:23:16.860Z,25.52
2023-06-03T12:24:21.004Z,26.13
2023-06-03T12:25:26.858Z,25.57
2023-06-03T12:26:37.139Z,24.58
2023-06-03T12:27:41.314Z,24.39
2023-06-03T12:28:44.276Z,23.82
2023-06-03T12:29:50.332Z,24.01
2023-06-03T12:30:53.482Z,23.80
2023-06-03T12:32:02.229Z,24.11
2023-06-03T12:33:06.301Z,23.52
2023-06-03T12:34:11.755Z,23.36
2023-06-03T12:35:16.094Z,23.38
2023-06-03T12:36:23.907Z,22.87
2023-06-03T12:37:31.934Z,22.90
2023-06-03T12:38:34.984Z,22.54
2023-06-03T12:39:47.129Z,23.10
2023-06-03T12:40:54.421Z,23.09
2023-06-03T12:41:58.687Z,22.29
2023-06-03T12:43:03.191Z,22.58
2023-06-03T12:44:06.484Z,23.20
2023-06-03T12:45:11.882Z,23.14
2023-06-03T12:46:16.109Z,22.69
2023-06-03T12:47:21.599Z,22.62
2023-06-03T12:48:31.934Z,22.46
2023-06-03T12:49:36.141Z,22.59
2023-06-03T12:50:40.375Z,23.43
2023-06-03T12:51:43.912Z,23.59
2023-06-03T12:52:48.120Z,23.67
2023-06-03T12:53:51.649Z,23.04
2023-06-03T12:54:56.003Z,22.95
2023-06-03T12:56:01.237Z,22.93
2023-06-03T12:57:06.776Z,22.57
2023-06-03T12:58:10.697Z,22.43
2023-06-03T12:59:13.420Z,22.27
2023-06-03T13:00:20.896Z,22.74
2023-06-03T13:01:24.586Z,22.54
2023-06-03T13:02:28.913Z,22.61
2023-06-03T13:03:34.797Z,22.62
2023-06-03T13:04:38.241Z,22.14
2023-06-03T13:05:43.249Z,21.29
2023-06-03T13:06:47.231Z,21.83
2023-06-03T13:07:51.412Z,22.11
2023-06-03T13:08:54.245Z,21.56
2023-06-03T13:10:01.485Z,21.37
2023-06-03T13:11:04.889Z,21.21
2023-06-03T13:12:11.181Z,21.25
2023-06-03T13:13:15.132Z,21.54
2023-06-03T13:14:18.357Z,21.91
2023-06-03T13:15:22.095Z,22.06
2023-06-03T13:16:25.119Z,21.99
2023-06-03T13:17:29.600Z,21.80
2023-06-03T13:18:33.523Z,21.78
2023-06-03T13:19:38.236Z,22.26
2023-06-03T13:20:42.619Z,22.31
2023-06-03T13:21:45.350Z,22.18
2023-06-03T13:22:49.848Z,22.25
2023-06-03T13:23:52.641Z,21.92
2023-06-03T13:24:56.886Z,21.64
2023-06-03T13:26:01.122Z,21.74
2023-06-03T13:27:04.450Z,21.43
2023-06-03T13:28:11.127Z,21.71
2023-06-03T13:29:14.885Z,21.81
2023-06-03T13:30:18.799Z,21.38
2023-06-03T13:31:21.859Z,21.29
2023-06-03T13:32:26.373Z,20.69
2023-06-03T13:33:30.117Z,20.94
2023-06-03T13:34:34.949Z,21.19
2023-06-03T13:35:39.100Z,21.10
2023-06-03T13:36:41.960Z,21.23
2023-06-03T13:37:45.709Z,21.42
2023-06-03T13:38:50.860Z,21.04
2023-06-03T13:39:54.732Z,21.00
2023-06-03T13:40:57.509Z,20.59
2023-06-03T13:42:02.446Z,20.96
2023-06-03T13:43:06.436Z,20.85
2023-06-03T13:44:11.058Z,20.92
2023-06-03T13:45:15.440Z,21.15
2023-06-03T13:46:18.311Z,21.55
2023-06-03T13:47:22.446Z,21.70
2023-06-03T13:48:25.507Z,21.54
2023-06-03T13:49:29.650Z,21.97
2023-06-03T13:50:33.476Z,21.65
2023-06-03T13:51:38.069Z,22.08
2023-06-03T13:52:41.871Z,22.80
2023-06-03T13:53:45.240Z,23.69
2023-06-03T13:54:49.168Z,24.23
2023-06-03T13:55:52.245Z,24.54
2023-06-03T13:56:56.409Z,24.72
2023-06-03T13:57:59.329Z,24.88
2023-06-03T13:59:04.301Z,25.50
2023-06-03T14:00:12.134Z,25.81
2023-06-03T14:01:17.417Z,25.89
2023-06-03T14:02:21.467Z,26.26
2023-06-03T14:03:24.760Z,26.07
2023-06-03T14:04:28.750Z,26.16
2023-06-03T14:05:31.741Z,26.79
2023-06-03T14:06:36.316Z,27.32
2023-06-03T14:07:40.125Z,27.87
2023-06-03T14:08:43.000Z,28.19